createdAt,value
2023-05-14T07:22:17.517Z,100605
2023-05-14T07:28:06.392Z,100598
2023-05-14T07:33:58.164Z,100596
2023-05-14T07:39:49.568Z,100591
2023-05-14T07:45:41.271Z,100583
2023-05-14T07:51:31.690Z,100588
2023-05-14T07:57:36.932Z,100577
2023-05-14T08:03:27.695Z,100587
2023-05-14T08:09:19.943Z,100569
2023-05-14T08:15:11.024Z,100555
2023-05-14T08:21:03.300Z,100556
2023-05-14T08:26:54.740Z,100556
2023-05-14T08:32:45.465Z,100566
2023-05-14T08:38:37.417Z,100555
2023-05-14T08:44:29.043Z,100550
2023-05-14T08:50:25.564Z,100548
2023-05-14T08:56:17.669Z,100545
2023-05-14T09:02:10.569Z,100543
2023-05-14T09:08:03.554Z,100540
2023-05-14T09:13:55.646Z,100543
2023-05-14T09:19:47.432Z,100530
2023-05-14T09:25:38.628Z,100537
2023-05-14T09:31:30.696Z,100532
2023-05-14T09:37:22.125Z,100522
2023-05-14T09:43:14.654Z,100519
2023-05-14T09:49:06.623Z,100520
2023-05-14T09:55:00.575Z,100518
2023-05-14T10:00:52.727Z,100505
2023-05-14T10:06:45.712Z,100509
2023-05-14T10:12:37.693Z,100500
2023-05-14T10:18:29.716Z,100485
2023-05-14T10:24:20.839Z,100485
2023-05-14T10:30:13.711Z,100480
2023-05-14T10:36:09.617Z,100478
2023-05-14T10:42:00.356Z,100473
2023-05-14T10:47:50.676Z,100472
2023-05-14T10:53:44.869Z,100451
2023-05-14T10:59:39.364Z,100441
2023-05-14T11:05:31.705Z,100442
2023-05-14T11:11:23.373Z,100441
2023-05-14T11:17:16.317Z,100436
2023-05-14T11:23:11.553Z,100434
2023-05-14T11:29:03.603Z,100420
2023-05-14T11:34:56.003Z,100410
2023-05-14T11:40:48.588Z,100413
2023-05-14T11:46:39.002Z,100401
2023-05-14T11:52:29.970Z,100401
2023-05-14T11:58:23.881Z,100414
2023-05-14T12:04:14.759Z,100397
2023-05-14T12:10:18.319Z,100412
2023-05-14T12:16:11.396Z,100398
2023-05-14T12:22:02.525Z,100397
2023-05-14T12:27:54.689Z,100369
2023-05-14T12:33:48.763Z,100374
2023-05-14T12:39:43.866Z,100371
2023-05-14T12:45:36.722Z,100366
2023-05-14T12:51:30.013Z,100365
2023-05-14T12:57:21.379Z,100359
2023-05-14T13:03:14.068Z,100348
2023-05-14T13:09:07.152Z,100349
2023-05-14T13:15:03.163Z,100344
2023-05-14T13:20:55.818Z,100328
2023-05-14T13:26:52.574Z,100318
2023-05-14T13:32:46.495Z,100314
2023-05-14T13:38:42.933Z,100298
2023-05-14T13:44:35.832Z,100293
2023-05-14T13:50:28.254Z,100296
2023-05-14T13:56:23.401Z,100285
2023-05-14T14:02:21.147Z,100280
2023-05-14T14:08:27.986Z,100275
2023-05-14T14:14:24.120Z,100251
2023-05-14T14:20:17.163Z,100268
2023-05-14T14:26:08.903Z,100244
2023-05-14T14:32:01.646Z,100244
2023-05-14T14:37:54.920Z,100244
2023-05-14T14:43:48.125Z,100238
2023-05-14T14:49:39.810Z,100247
2023-05-14T14:55:32.599Z,100232
2023-05-14T15:01:25.784Z,100227
2023-05-14T15:07:17.821Z,100227
2023-05-14T15:13:10.208Z,100230
2023-05-14T15:19:01.890Z,100220
2023-05-14T15:24:54.217Z,100217
2023-05-14T15:30:48.289Z,100207
2023-05-14T15:36:42.167Z,100204
2023-05-14T15:42:42.395Z,100209
2023-05-14T15:49:43.286Z,100200
2023-05-14T15:55:48.648Z,100193
2023-05-14T16:01:42.213Z,100184
2023-05-14T16:07:40.424Z,100178
2023-05-14T16:13:33.369Z,100192
2023-05-14T16:19:24.765Z,100187
2023-05-14T16:25:15.563Z,100197
2023-05-14T16:31:10.441Z,100186
2023-05-14T16:37:02.679Z,100186
2023-05-14T16:43:08.144Z,100183
2023-05-14T16:48:59.211Z,100187
2023-05-14T16:54:49.781Z,100184
2023-05-14T17:00:45.105Z,100180
2023-05-14T17:06:38.111Z,100184
2023-05-14T17:12:29.972Z,100177
2023-05-14T17:18:24.999Z,100177
2023-05-14T17:24:27.112Z,100184
2023-05-14T17:30:18.290Z,100196
2023-05-14T17:36:10.135Z,100192
2023-05-14T17:42:09.252Z,100193
2023-05-14T17:48:02.203Z,100195
2023-05-14T17:53:54.825Z,100206
2023-05-14T18:00:05.129Z,100207
2023-05-14T18:06:08.031Z,100212
2023-05-14T18:12:09.402Z,100222
2023-05-14T18:18:02.261Z,100221
2023-05-14T18:23:56.865Z,100224
2023-05-14T18:30:00.657Z,100227
2023-05-14T18:35:52.881Z,100231
2023-05-14T18:41:44.890Z,100225
2023-05-14T18:47:42.183Z,100223
2023-05-14T18:53:45.542Z,100230
2023-05-14T18:59:49.808Z,100226
2023-05-14T19:05:50.857Z,100225
2023-05-14T19:11:43.459Z,100233
2023-05-14T19:17:35.594Z,100248
2023-05-14T19:23:41.009Z,100255
2023-05-14T19:29:44.269Z,100269
2023-05-14T19:35:46.471Z,100272
2023-05-14T19:41:45.615Z,100278
2023-05-14T19:47:37.734Z,100293
2023-05-14T19:54:06.532Z,100307
2023-05-14T20:00:11.697Z,100299
2023-05-14T20:06:15.464Z,100300
2023-05-14T20:12:27.460Z,100305
2023-05-14T20:18:20.266Z,100296
2023-05-14T20:24:15.158Z,100291
2023-05-14T20:30:07.889Z,100287
2023-05-14T20:35:58.587Z,100276
2023-05-14T20:41:50.895Z,100267
2023-05-14T20:47:46.451Z,100268
2023-05-14T20:53:38.682Z,100269
2023-05-14T20:59:44.514Z,100260
2023-05-14T21:05:34.495Z,100266
2023-05-14T21:11:38.036Z,100260
2023-05-14T21:17:30.917Z,100259
2023-05-14T21:23:23.889Z,100255
2023-05-14T21:29:14.341Z,100250
2023-05-14T21:35:05.484Z,100250
2023-05-14T21:40:57.543Z,100250
2023-05-14T21:46:49.332Z,100251
2023-05-14T21:52:41.265Z,100249
2023-05-14T21:58:33.279Z,100251
2023-05-14T22:04:26.484Z,100252
2023-05-14T22:10:18.644Z,100260
2023-05-14T22:16:16.849Z,100253
2023-05-14T22:22:06.510Z,100250
2023-05-14T22:27:58.824Z,100245
2023-05-14T22:33:50.437Z,100245
2023-05-14T22:39:42.139Z,100249
2023-05-14T22:45:34.079Z,100237
2023-05-14T22:51:26.234Z,100241
2023-05-14T22:57:17.722Z,100225
2023-05-14T23:03:09.838Z,100219
2023-05-14T23:09:02.951Z,100227
2023-05-14T23:14:54.854Z,100223
2023-05-14T23:20:46.366Z,100223
2023-05-14T23:26:36.807Z,100213
2023-05-14T23:32:29.271Z,100214
2023-05-14T23:38:22.414Z,100208
2023-05-14T23:44:19.295Z,100203
2023-05-14T23:50:11.452Z,100205
2023-05-14T23:56:02.897Z,100196
